Time;durP1;ratioP1;P1;durP2;ratioP2;P2;SDS_P1;SDS_P2;PMS_P1;PMS_P2;Temp;Humidity;BMP_temperature;BMP_pressure;BME280_temperature;BME280_humidity;BME280_pressure;Samples;Min_cycle;Max_cycle;Signal;HPM_P1;HPM_P2
2022/02/27 00:00:09;;;;;;;9.25;3.33;;;-0.70;99.90;;;;;;5048390;28;20212;-76
2022/02/27 00:02:37;;;;;;;7.43;3.40;;;-0.70;99.90;;;;;;5048555;28;20688;-77
2022/02/27 00:05:04;;;;;;;3.95;2.75;;;-0.80;99.90;;;;;;5048004;28;20232;-77
2022/02/27 00:07:31;;;;;;;5.20;3.75;;;-0.70;99.90;;;;;;5047682;28;20209;-76
2022/02/27 00:09:58;;;;;;;10.20;3.70;;;-0.70;99.90;;;;;;5048124;28;20231;-77
2022/02/27 00:12:25;;;;;;;8.80;4.00;;;-0.80;99.90;;;;;;5048939;28;20284;-77
2022/02/27 00:14:51;;;;;;;6.80;3.40;;;-0.90;99.90;;;;;;5047734;28;20221;-77
2022/02/27 00:17:18;;;;;;;5.15;2.78;;;-0.80;99.90;;;;;;5047805;28;20208;-77
2022/02/27 00:19:46;;;;;;;6.18;2.72;;;-0.90;99.90;;;;;;5048151;28;20217;-77
2022/02/27 00:22:13;;;;;;;5.28;2.95;;;-0.80;99.90;;;;;;5048144;28;20232;-76
2022/02/27 00:24:40;;;;;;;4.60;2.95;;;-0.90;99.90;;;;;;5048180;28;20718;-76
2022/02/27 00:27:06;;;;;;;8.40;2.90;;;-0.80;99.90;;;;;;5047709;28;20208;-77
2022/02/27 00:29:33;;;;;;;10.32;3.60;;;-1.00;99.90;;;;;;5049782;28;20621;-77
2022/02/27 00:32:00;;;;;;;7.55;3.30;;;-1.00;99.90;;;;;;5089156;22;20225;-89
2022/02/27 00:34:27;;;;;;;7.03;3.35;;;-1.10;99.90;;;;;;5054019;28;20746;-88
2022/02/27 00:36:55;;;;;;;7.40;2.85;;;-1.10;99.90;;;;;;5094272;22;20271;-81
2022/02/27 00:39:24;;;;;;;8.68;3.65;;;-1.10;99.90;;;;;;5115307;28;20230;-81
2022/02/27 00:41:50;;;;;;;9.45;3.70;;;-1.10;99.90;;;;;;5118544;28;20203;-81
2022/02/27 00:44:17;;;;;;;5.80;3.15;;;-1.20;99.90;;;;;;5119390;28;20210;-81
2022/02/27 00:46:45;;;;;;;11.13;4.40;;;-1.30;99.90;;;;;;5117568;28;20227;-80
2022/02/27 00:49:12;;;;;;;8.88;3.10;;;-1.20;99.90;;;;;;5116777;28;20211;-80
2022/02/27 00:51:38;;;;;;;6.00;3.25;;;-1.20;99.90;;;;;;5116050;28;20206;-80
2022/02/27 00:54:07;;;;;;;10.30;3.95;;;-1.20;99.90;;;;;;5114882;28;20215;-82
2022/02/27 00:56:34;;;;;;;10.65;4.40;;;-1.20;99.90;;;;;;5113435;28;20199;-83
2022/02/27 00:59:01;;;;;;;6.22;3.13;;;-1.20;99.90;;;;;;5106958;28;20203;-83
2022/02/27 01:01:28;;;;;;;7.75;3.10;;;-1.20;99.90;;;;;;5104682;28;20222;-82
2022/02/27 01:03:55;;;;;;;5.38;3.13;;;-1.20;99.90;;;;;;5103760;28;20219;-83
2022/02/27 01:06:22;;;;;;;6.00;3.10;;;-1.20;99.90;;;;;;5105124;28;20200;-83
2022/02/27 01:08:49;;;;;;;4.35;3.10;;;-1.20;99.90;;;;;;5111567;28;20196;-82
2022/02/27 01:11:17;;;;;;;6.32;3.55;;;-1.20;99.90;;;;;;5115231;28;20272;-83
2022/02/27 01:13:45;;;;;;;5.97;3.20;;;-1.20;99.90;;;;;;5114493;28;20274;-81
2022/02/27 01:16:12;;;;;;;5.95;3.10;;;-1.10;99.90;;;;;;5114126;28;20204;-82
2022/02/27 01:18:39;;;;;;;9.40;3.38;;;-1.10;99.90;;;;;;5116793;28;20191;-82
2022/02/27 01:21:06;;;;;;;4.10;2.70;;;-1.10;99.90;;;;;;5126516;28;20223;-83
2022/02/27 01:23:32;;;;;;;6.38;3.13;;;-1.10;99.90;;;;;;5125190;28;20222;-83
2022/02/27 01:25:59;;;;;;;4.32;3.25;;;-1.20;99.90;;;;;;5124962;28;20202;-83
2022/02/27 01:28:27;;;;;;;6.90;3.42;;;-1.20;99.90;;;;;;5124572;28;20234;-83
2022/02/27 01:30:54;;;;;;;7.70;3.47;;;-1.20;99.90;;;;;;5125374;28;20211;-82
2022/02/27 01:33:21;;;;;;;5.40;3.50;;;-1.20;99.90;;;;;;5124228;28;20249;-82
2022/02/27 01:35:48;;;;;;;4.97;3.65;;;-1.20;99.90;;;;;;5122699;28;20207;-82
2022/02/27 01:38:15;;;;;;;4.20;3.00;;;-1.20;99.90;;;;;;5117933;28;20210;-82
2022/02/27 01:40:42;;;;;;;4.05;3.15;;;-1.20;99.90;;;;;;5117682;28;20195;-82
2022/02/27 01:43:09;;;;;;;3.60;2.92;;;-1.20;99.90;;;;;;5117542;28;20730;-81
2022/02/27 01:45:37;;;;;;;8.05;3.95;;;-1.30;99.90;;;;;;5126420;28;20199;-80
2022/02/27 01:48:04;;;;;;;5.57;3.20;;;-1.30;99.90;;;;;;5126903;28;20207;-82
2022/02/27 01:50:31;;;;;;;4.07;3.40;;;-1.30;99.90;;;;;;5127675;28;20194;-82
2022/02/27 01:52:58;;;;;;;4.07;2.58;;;-1.30;99.90;;;;;;5126692;28;20199;-82
2022/02/27 01:55:25;;;;;;;7.10;3.35;;;-1.30;99.90;;;;;;5126703;28;20195;-82
2022/02/27 01:57:52;;;;;;;9.02;3.30;;;-1.30;99.90;;;;;;5126866;28;20199;-82
2022/02/27 02:00:19;;;;;;;4.18;2.60;;;-1.30;99.90;;;;;;5126683;28;20203;-82
2022/02/27 02:02:47;;;;;;;5.30;2.95;;;-1.30;99.90;;;;;;5126937;28;20649;-82
2022/02/27 02:05:15;;;;;;;8.48;3.40;;;-1.30;99.90;;;;;;5119874;28;20222;-81
2022/02/27 02:07:43;;;;;;;5.80;3.22;;;-1.40;99.90;;;;;;5116427;28;20203;-81
2022/02/27 02:10:10;;;;;;;6.63;3.20;;;-1.40;99.90;;;;;;5117237;28;20203;-81
2022/02/27 02:12:37;;;;;;;7.40;3.00;;;-1.40;99.90;;;;;;5117182;28;20222;-82
2022/02/27 02:15:04;;;;;;;5.70;3.47;;;-1.40;99.90;;;;;;5117254;28;20316;-81
2022/02/27 02:17:31;;;;;;;8.18;3.17;;;-1.40;99.90;;;;;;5117498;28;20206;-81
2022/02/27 02:20:00;;;;;;;5.93;3.20;;;-1.40;99.90;;;;;;5117748;28;20680;-81
2022/02/27 02:22:26;;;;;;;4.70;3.30;;;-1.40;99.90;;;;;;5118245;28;20219;-82
2022/02/27 02:24:53;;;;;;;10.68;3.20;;;-1.50;99.90;;;;;;5118771;28;20216;-82
2022/02/27 02:27:20;;;;;;;6.18;2.65;;;-1.50;99.90;;;;;;5118580;28;20199;-81
2022/02/27 02:29:47;;;;;;;3.42;2.90;;;-1.60;99.90;;;;;;5118995;28;20214;-81
2022/02/27 02:32:14;;;;;;;10.50;3.50;;;-1.60;99.90;;;;;;5122096;28;20195;-81
2022/02/27 02:34:41;;;;;;;8.45;3.17;;;-1.60;99.90;;;;;;5124368;28;20254;-82
2022/02/27 02:37:10;;;;;;;3.83;2.80;;;-1.60;99.90;;;;;;5123363;28;20211;-82
2022/02/27 02:39:37;;;;;;;5.78;2.90;;;-1.60;99.90;;;;;;5125589;28;20203;-82
2022/02/27 02:42:04;;;;;;;5.78;3.08;;;-1.60;99.90;;;;;;5131445;28;20215;-83
2022/02/27 02:44:31;;;;;;;6.15;2.83;;;-1.70;99.90;;;;;;5124587;28;20214;-83
2022/02/27 02:46:58;;;;;;;3.80;2.75;;;-1.70;99.90;;;;;;5123275;28;20206;-82
2022/02/27 02:49:25;;;;;;;5.03;2.70;;;-1.70;99.90;;;;;;5123247;28;20198;-81
2022/02/27 02:51:52;;;;;;;8.68;3.20;;;-1.70;99.90;;;;;;5123867;28;20195;-82
2022/02/27 02:54:20;;;;;;;4.57;2.60;;;-1.70;99.90;;;;;;5124080;28;20222;-82
2022/02/27 02:56:47;;;;;;;9.80;3.15;;;-1.70;99.90;;;;;;5124314;28;20207;-82
2022/02/27 02:59:14;;;;;;;5.50;3.05;;;-1.80;99.90;;;;;;5124453;28;20262;-82
2022/02/27 03:01:40;;;;;;;4.85;2.83;;;-1.80;99.90;;;;;;5124477;28;20219;-81
2022/02/27 03:04:07;;;;;;;10.43;2.80;;;-1.80;99.90;;;;;;5122776;28;20567;-82
2022/02/27 03:06:35;;;;;;;6.53;2.90;;;-1.70;99.90;;;;;;5123753;28;20199;-82
2022/02/27 03:09:01;;;;;;;6.07;4.05;;;-1.80;99.90;;;;;;5123071;28;20206;-82
2022/02/27 03:11:29;;;;;;;4.50;2.75;;;-1.80;99.90;;;;;;5124380;28;20207;-82
2022/02/27 03:14:00;;;;;;;3.90;3.05;;;-1.90;99.90;;;;;;5123927;28;20223;-82
2022/02/27 03:16:28;;;;;;;4.13;2.53;;;-1.90;99.90;;;;;;5123328;28;20213;-82
2022/02/27 03:18:54;;;;;;;8.32;2.78;;;-1.90;99.90;;;;;;5122046;28;20230;-82
2022/02/27 03:21:21;;;;;;;11.25;2.85;;;-1.90;99.90;;;;;;5119998;28;20206;-81
2022/02/27 03:23:52;;;;;;;5.47;3.47;;;-1.90;99.90;;;;;;5122868;28;20219;-82
2022/02/27 03:26:19;;;;;;;13.55;3.40;;;-1.90;99.90;;;;;;5124185;28;20727;-83
2022/02/27 03:28:48;;;;;;;4.57;3.00;;;-1.90;99.90;;;;;;5123584;28;20202;-82
2022/02/27 03:31:16;;;;;;;9.48;3.22;;;-1.90;99.90;;;;;;5122854;28;20210;-82
2022/02/27 03:33:42;;;;;;;7.55;2.95;;;-1.90;99.90;;;;;;5122795;28;20219;-82
2022/02/27 03:36:09;;;;;;;8.75;3.13;;;-1.90;99.90;;;;;;5122858;28;20669;-82
2022/02/27 03:38:36;;;;;;;5.50;2.83;;;-1.90;99.90;;;;;;5122001;28;20205;-82
2022/02/27 03:41:03;;;;;;;5.45;2.70;;;-1.90;99.90;;;;;;5123234;28;20193;-82
2022/02/27 03:43:29;;;;;;;6.65;3.38;;;-1.90;99.90;;;;;;5122913;28;20720;-82
2022/02/27 03:45:58;;;;;;;9.52;3.03;;;-1.80;99.90;;;;;;5122828;28;20229;-82
2022/02/27 03:48:24;;;;;;;4.65;2.78;;;-1.90;99.90;;;;;;5122193;28;20222;-82
2022/02/27 03:50:51;;;;;;;4.50;2.63;;;-1.90;99.90;;;;;;5122666;28;20195;-81
2022/02/27 03:53:19;;;;;;;5.07;3.22;;;-1.90;99.90;;;;;;5129948;28;20199;-80
2022/02/27 03:55:45;;;;;;;10.57;2.80;;;-1.90;99.90;;;;;;5131289;28;20207;-81
2022/02/27 03:58:12;;;;;;;5.10;3.30;;;-1.90;99.90;;;;;;5114801;28;20620;-81
2022/02/27 04:00:39;;;;;;;7.07;3.58;;;-1.90;99.90;;;;;;5112478;28;20202;-81
2022/02/27 04:03:08;;;;;;;4.28;2.83;;;-1.90;99.90;;;;;;5112700;28;20223;-81
2022/02/27 04:05:36;;;;;;;4.60;2.90;;;-2.00;99.90;;;;;;5114219;28;20229;-81
2022/02/27 04:08:03;;;;;;;4.93;2.88;;;-1.90;99.90;;;;;;5113485;28;20297;-81
2022/02/27 04:10:30;;;;;;;3.80;3.22;;;-2.00;99.90;;;;;;5115072;28;20203;-81
2022/02/27 04:12:57;;;;;;;9.20;3.20;;;-2.00;99.90;;;;;;5115157;28;20188;-80
2022/02/27 04:15:24;;;;;;;4.32;2.90;;;-2.00;99.90;;;;;;5115144;28;20199;-81
2022/02/27 04:17:51;;;;;;;9.20;3.33;;;-2.10;99.90;;;;;;5114956;28;20210;-83
2022/02/27 04:20:19;;;;;;;8.25;3.50;;;-2.10;99.90;;;;;;5122395;28;20203;-82
2022/02/27 04:22:46;;;;;;;5.80;3.22;;;-2.10;99.90;;;;;;5128980;28;20244;-82
2022/02/27 04:25:13;;;;;;;3.50;2.92;;;-2.10;99.90;;;;;;5129450;28;20233;-82
2022/02/27 04:27:40;;;;;;;6.13;3.25;;;-2.10;99.90;;;;;;5124732;28;20205;-82
2022/02/27 04:30:07;;;;;;;4.75;3.00;;;-2.10;99.90;;;;;;5122515;28;20211;-83
2022/02/27 04:32:34;;;;;;;5.03;3.22;;;-2.10;99.90;;;;;;5121621;28;20202;-83
2022/02/27 04:35:01;;;;;;;8.38;3.55;;;-2.20;99.90;;;;;;5122484;28;20238;-82
2022/02/27 04:37:30;;;;;;;8.65;3.85;;;-2.20;99.90;;;;;;5121883;28;20230;-82
2022/02/27 04:39:56;;;;;;;4.78;2.92;;;-2.20;99.90;;;;;;5122254;28;20295;-83
2022/02/27 04:42:23;;;;;;;5.55;3.40;;;-2.10;99.90;;;;;;5122995;28;20231;-82
2022/02/27 04:44:50;;;;;;;9.63;4.50;;;-2.10;99.90;;;;;;5123207;28;20226;-83
2022/02/27 04:47:16;;;;;;;5.38;3.22;;;-2.10;99.90;;;;;;5122836;28;20206;-83
2022/02/27 04:49:43;;;;;;;10.65;3.90;;;-2.10;99.90;;;;;;5123877;28;20202;-81
2022/02/27 04:52:11;;;;;;;4.97;4.10;;;-2.10;99.90;;;;;;5124083;28;20198;-83
2022/02/27 04:54:39;;;;;;;10.10;3.55;;;-2.10;99.90;;;;;;5123489;28;20268;-82
2022/02/27 04:57:06;;;;;;;6.20;3.78;;;-2.10;99.90;;;;;;5123209;28;20195;-82
2022/02/27 04:59:32;;;;;;;3.53;3.05;;;-2.10;99.90;;;;;;5124301;28;20225;-83
2022/02/27 05:01:59;;;;;;;4.63;3.08;;;-2.20;99.90;;;;;;5124156;28;20199;-82
2022/02/27 05:04:26;;;;;;;6.65;3.65;;;-2.20;99.90;;;;;;5124082;28;20219;-83
2022/02/27 05:06:53;;;;;;;6.65;3.35;;;-2.20;99.90;;;;;;5122665;28;20206;-81
2022/02/27 05:09:20;;;;;;;4.70;3.35;;;-2.30;99.90;;;;;;5122671;28;20203;-83
2022/02/27 05:11:49;;;;;;;6.20;3.22;;;-2.30;99.90;;;;;;5123866;28;20203;-83
2022/02/27 05:14:15;;;;;;;7.28;3.67;;;-2.30;99.90;;;;;;5123323;28;20638;-81
2022/02/27 05:16:42;;;;;;;9.00;4.05;;;-2.30;99.90;;;;;;5122474;28;20210;-82
2022/02/27 05:19:09;;;;;;;5.55;3.63;;;-2.20;99.90;;;;;;5121231;28;20211;-81
2022/02/27 05:21:36;;;;;;;9.88;3.58;;;-2.30;99.90;;;;;;5120422;28;20229;-81
2022/02/27 05:24:04;;;;;;;3.92;3.05;;;-2.30;99.90;;;;;;5120298;28;20306;-81
2022/02/27 05:26:30;;;;;;;9.13;3.40;;;-2.30;99.90;;;;;;5122259;28;20199;-81
2022/02/27 05:28:58;;;;;;;8.18;4.07;;;-2.30;99.90;;;;;;5124496;28;20622;-82
2022/02/27 05:31:26;;;;;;;8.57;4.07;;;-2.30;99.90;;;;;;5125151;28;20206;-81
2022/02/27 05:33:53;;;;;;;7.22;4.15;;;-2.20;99.90;;;;;;5124505;28;20291;-81
2022/02/27 05:36:19;;;;;;;5.10;3.28;;;-2.20;99.90;;;;;;5124391;28;20207;-81
2022/02/27 05:38:46;;;;;;;10.07;4.85;;;-2.10;99.90;;;;;;5123272;28;20203;-82
2022/02/27 05:41:13;;;;;;;15.52;4.35;;;-2.10;99.90;;;;;;5124906;28;20199;-80
2022/02/27 05:43:40;;;;;;;10.77;4.53;;;-2.10;99.90;;;;;;5124647;28;20248;-82
2022/02/27 05:46:08;;;;;;;7.15;3.45;;;-2.10;99.90;;;;;;5123476;28;20199;-82
2022/02/27 05:48:35;;;;;;;8.40;4.60;;;-2.10;99.90;;;;;;5122575;28;20206;-83
2022/02/27 05:51:02;;;;;;;7.40;4.13;;;-2.10;99.90;;;;;;5114942;28;20207;-81
2022/02/27 05:53:29;;;;;;;5.05;3.42;;;-2.20;99.90;;;;;;5115535;28;20709;-82
2022/02/27 05:55:57;;;;;;;5.43;3.78;;;-2.20;99.90;;;;;;5115642;28;20195;-82
2022/02/27 05:58:25;;;;;;;6.88;4.45;;;-2.30;99.90;;;;;;5114979;28;20234;-82
2022/02/27 06:00:52;;;;;;;5.40;3.55;;;-2.30;99.90;;;;;;5115803;28;20294;-82
2022/02/27 06:03:20;;;;;;;7.13;3.90;;;-2.30;99.90;;;;;;5110107;28;20238;-81
2022/02/27 06:05:47;;;;;;;9.20;4.60;;;-2.30;99.90;;;;;;5105145;28;20196;-81
2022/02/27 06:08:14;;;;;;;8.55;4.40;;;-2.20;99.90;;;;;;5104860;28;20211;-81
2022/02/27 06:10:41;;;;;;;8.35;4.22;;;-2.30;99.90;;;;;;5107632;28;20234;-82
2022/02/27 06:13:08;;;;;;;8.07;4.18;;;-2.30;99.90;;;;;;5109913;28;20208;-81
2022/02/27 06:15:35;;;;;;;5.72;3.92;;;-2.30;99.90;;;;;;5113885;28;20687;-82
2022/02/27 06:18:02;;;;;;;7.68;3.90;;;-2.30;99.90;;;;;;5107602;28;20601;-80
2022/02/27 06:20:30;;;;;;;6.28;4.15;;;-2.30;99.90;;;;;;5104041;28;20203;-82
2022/02/27 06:22:57;;;;;;;5.55;3.67;;;-2.30;99.90;;;;;;5103712;28;20227;-82
2022/02/27 06:25:24;;;;;;;7.78;4.78;;;-2.30;99.90;;;;;;5107499;28;20569;-82
2022/02/27 06:27:51;;;;;;;6.85;4.00;;;-2.30;99.90;;;;;;5107615;28;20666;-81
2022/02/27 06:30:18;;;;;;;10.38;4.38;;;-2.30;99.90;;;;;;5106910;28;20207;-81
2022/02/27 06:32:47;;;;;;;8.25;4.40;;;-2.30;99.90;;;;;;5127176;22;20238;-76
2022/02/27 06:35:18;;;;;;;7.70;3.70;;;-2.30;99.90;;;;;;5121740;27;20260;-75
2022/02/27 06:37:46;;;;;;;7.30;4.20;;;-2.30;99.90;;;;;;5120052;27;20194;-75
2022/02/27 06:40:14;;;;;;;8.63;4.70;;;-2.30;99.90;;;;;;5121471;27;20199;-78
2022/02/27 06:42:42;;;;;;;9.55;4.63;;;-2.20;99.90;;;;;;5123966;27;20190;-78
2022/02/27 06:45:11;;;;;;;8.90;4.85;;;-2.20;99.90;;;;;;5122028;27;20211;-76
2022/02/27 06:47:38;;;;;;;8.35;4.43;;;-2.10;99.90;;;;;;5120310;27;20198;-78
2022/02/27 06:50:06;;;;;;;10.23;4.68;;;-2.10;99.90;;;;;;5120840;27;20197;-78
2022/02/27 06:52:33;;;;;;;7.55;4.45;;;-2.10;99.90;;;;;;5121371;27;20194;-78
2022/02/27 06:55:01;;;;;;;8.70;5.40;;;-2.00;99.90;;;;;;5123383;27;20222;-78
2022/02/27 06:57:29;;;;;;;8.07;4.80;;;-2.00;99.90;;;;;;5124668;27;20198;-82
2022/02/27 06:59:55;;;;;;;7.30;4.25;;;-1.90;99.90;;;;;;5135716;27;20289;-78
2022/02/27 07:02:22;;;;;;;6.55;4.70;;;-1.80;99.90;;;;;;5134009;27;20221;-78
2022/02/27 07:04:49;;;;;;;11.27;5.25;;;-1.80;99.90;;;;;;5134416;27;20226;-76
2022/02/27 07:07:16;;;;;;;10.82;4.70;;;-1.70;99.90;;;;;;5133465;27;20209;-71
2022/02/27 07:09:42;;;;;;;8.05;5.20;;;-1.60;99.90;;;;;;5133452;27;20562;-76
2022/02/27 07:12:11;;;;;;;8.63;5.70;;;-1.60;99.90;;;;;;5132288;27;20198;-76
2022/02/27 07:14:39;;;;;;;12.82;6.47;;;-1.50;99.90;;;;;;5132161;27;20214;-76
2022/02/27 07:17:05;;;;;;;7.53;4.70;;;-1.30;99.90;;;;;;5132202;27;20202;-76
2022/02/27 07:19:32;;;;;;;10.52;5.50;;;-1.10;99.90;;;;;;5131960;27;20202;-75
2022/02/27 07:21:59;;;;;;;6.68;5.60;;;-0.70;99.90;;;;;;5132379;27;20653;-75
2022/02/27 07:24:26;;;;;;;6.60;4.65;;;0.20;99.90;;;;;;5132261;27;20229;-77
2022/02/27 07:26:52;;;;;;;8.82;5.18;;;1.40;99.90;;;;;;5130695;27;20210;-77
2022/02/27 07:29:20;;;;;;;9.07;5.13;;;2.50;99.90;;;;;;5132585;27;20202;-76
2022/02/27 07:31:47;;;;;;;7.78;5.75;;;3.40;99.90;;;;;;5111422;27;20207;-76
2022/02/27 07:34:14;;;;;;;5.45;4.75;;;4.30;99.90;;;;;;5122997;27;20223;-76
2022/02/27 07:36:41;;;;;;;7.50;6.07;;;4.90;99.90;;;;;;5131751;27;20209;-76
2022/02/27 07:39:07;;;;;;;7.65;4.95;;;5.40;99.90;;;;;;5131920;27;20225;-76
2022/02/27 07:41:36;;;;;;;7.25;5.22;;;6.20;99.90;;;;;;5131796;27;20665;-76
2022/02/27 07:44:03;;;;;;;6.75;4.97;;;6.90;99.90;;;;;;5131513;27;20214;-76
2022/02/27 07:46:31;;;;;;;8.02;5.28;;;7.80;98.60;;;;;;5132007;27;20195;-77
2022/02/27 07:48:58;;;;;;;6.68;5.28;;;8.30;97.10;;;;;;5131138;27;20202;-76
2022/02/27 07:51:25;;;;;;;6.45;5.18;;;8.30;96.40;;;;;;5132096;27;20199;-76
2022/02/27 07:53:52;;;;;;;8.80;6.00;;;8.50;96.20;;;;;;5131705;27;20214;-77
2022/02/27 07:56:18;;;;;;;6.85;4.95;;;8.70;96.20;;;;;;5131530;27;20194;-76
2022/02/27 07:58:45;;;;;;;7.18;4.90;;;9.10;95.60;;;;;;5130264;27;20576;-77
2022/02/27 08:01:12;;;;;;;6.40;4.72;;;9.10;94.90;;;;;;5132041;27;20202;-76
2022/02/27 08:03:40;;;;;;;5.85;4.97;;;9.20;94.90;;;;;;5131733;27;20222;-76
2022/02/27 08:06:06;;;;;;;7.75;4.85;;;9.70;94.20;;;;;;5131866;27;20202;-76
2022/02/27 08:08:34;;;;;;;9.35;5.25;;;9.90;94.40;;;;;;5130693;27;20594;-76
2022/02/27 08:11:01;;;;;;;6.70;5.18;;;10.10;93.30;;;;;;5131696;27;20199;-76
2022/02/27 08:13:27;;;;;;;7.82;4.80;;;9.80;93.30;;;;;;5131668;27;20222;-76
2022/02/27 08:15:57;;;;;;;6.95;5.10;;;9.70;93.60;;;;;;5131210;27;20202;-76
2022/02/27 08:18:24;;;;;;;6.55;5.10;;;10.10;92.90;;;;;;5132390;27;20683;-77
2022/02/27 08:20:53;;;;;;;8.30;5.13;;;10.20;92.00;;;;;;5132795;27;20720;-77
2022/02/27 08:23:20;;;;;;;5.38;4.60;;;10.50;91.70;;;;;;5132637;28;20225;-77
2022/02/27 08:25:46;;;;;;;8.48;4.80;;;10.80;91.80;;;;;;5132539;28;20199;-77
2022/02/27 08:28:13;;;;;;;7.35;4.90;;;11.10;91.70;;;;;;5132498;28;20205;-77
2022/02/27 08:30:40;;;;;;;6.30;4.75;;;11.50;91.50;;;;;;5133288;28;20684;-77
2022/02/27 08:33:07;;;;;;;6.45;4.93;;;11.90;91.30;;;;;;5132862;28;20214;-77
2022/02/27 08:35:34;;;;;;;6.75;4.63;;;12.20;90.30;;;;;;5133703;28;20202;-77
2022/02/27 08:38:02;;;;;;;8.25;4.80;;;12.00;89.90;;;;;;5132847;28;20209;-77
2022/02/27 08:40:29;;;;;;;6.05;5.45;;;12.10;89.10;;;;;;5133121;28;20198;-77
2022/02/27 08:42:57;;;;;;;6.15;4.55;;;11.60;89.20;;;;;;5131192;28;20202;-76
2022/02/27 08:45:25;;;;;;;6.85;4.85;;;11.40;90.00;;;;;;5131411;28;20229;-76
2022/02/27 08:47:52;;;;;;;7.32;4.68;;;11.60;89.00;;;;;;5131512;28;20209;-77
2022/02/27 08:50:20;;;;;;;6.32;5.38;;;11.50;89.00;;;;;;5131883;27;20580;-76
2022/02/27 08:52:46;;;;;;;8.55;5.10;;;11.10;90.00;;;;;;5131263;28;20198;-76
2022/02/27 08:55:16;;;;;;;7.70;5.68;;;11.10;89.70;;;;;;5131343;28;20219;-76
2022/02/27 08:57:43;;;;;;;6.80;5.10;;;11.10;90.20;;;;;;5130991;28;20517;-76
2022/02/27 09:00:12;;;;;;;6.00;4.70;;;11.30;88.90;;;;;;5131936;27;20210;-76
2022/02/27 09:02:39;;;;;;;6.10;4.95;;;11.20;89.70;;;;;;5134143;27;20209;-76
2022/02/27 09:05:07;;;;;;;6.50;5.53;;;11.70;88.30;;;;;;5134758;27;20215;-75
2022/02/27 09:07:34;;;;;;;6.03;5.05;;;11.70;88.70;;;;;;5134733;27;20235;-75
2022/02/27 09:10:02;;;;;;;8.43;5.25;;;11.90;88.20;;;;;;5135649;27;20210;-76
2022/02/27 09:12:30;;;;;;;7.85;5.63;;;11.60;88.70;;;;;;5135218;27;20302;-75
2022/02/27 09:14:57;;;;;;;5.72;5.13;;;12.10;87.80;;;;;;5135242;27;20226;-76
2022/02/27 09:17:25;;;;;;;7.78;5.00;;;12.90;87.20;;;;;;5135425;27;20236;-75
2022/02/27 09:19:51;;;;;;;4.55;4.15;;;13.50;86.00;;;;;;5135908;27;20209;-75
2022/02/27 09:22:18;;;;;;;6.25;5.65;;;13.80;84.40;;;;;;5134889;27;20665;-76
2022/02/27 09:24:45;;;;;;;5.72;4.45;;;14.00;83.50;;;;;;5134011;27;20222;-75
2022/02/27 09:27:12;;;;;;;8.50;5.80;;;14.00;82.40;;;;;;5134320;27;20676;-75
2022/02/27 09:29:40;;;;;;;7.17;4.47;;;14.20;82.40;;;;;;5134409;27;20571;-75
2022/02/27 09:32:07;;;;;;;5.90;5.30;;;14.40;79.90;;;;;;5134571;27;20882;-76
2022/02/27 09:34:34;;;;;;;7.82;6.03;;;13.80;81.40;;;;;;5134774;27;20981;-76
2022/02/27 09:37:00;;;;;;;7.00;4.45;;;13.60;82.50;;;;;;5133696;27;20582;-76
2022/02/27 09:39:30;;;;;;;6.50;4.77;;;14.30;82.40;;;;;;5134223;27;20198;-76
2022/02/27 09:41:56;;;;;;;6.60;4.00;;;14.50;80.40;;;;;;5134010;27;20455;-75
2022/02/27 09:44:24;;;;;;;4.93;4.50;;;13.40;81.30;;;;;;5134514;27;20990;-75
2022/02/27 09:46:52;;;;;;;6.50;5.43;;;12.30;82.20;;;;;;5133588;27;20463;-75
2022/02/27 09:49:19;;;;;;;5.07;3.55;;;12.20;82.80;;;;;;5134105;27;20206;-75
2022/02/27 09:51:46;;;;;;;6.35;3.85;;;11.90;81.20;;;;;;5130743;27;20194;-75
2022/02/27 09:54:14;;;;;;;3.72;3.42;;;11.70;82.30;;;;;;5121346;27;20700;-74
2022/02/27 09:56:41;;;;;;;4.18;3.50;;;12.60;79.60;;;;;;5122798;27;20222;-75
2022/02/27 09:59:08;;;;;;;4.60;3.80;;;13.00;78.60;;;;;;5122893;27;20225;-76
2022/02/27 10:01:40;;;;;;;6.18;4.40;;;13.00;80.00;;;;;;5121295;27;20187;-75
2022/02/27 10:04:21;;;;;;;3.65;3.35;;;13.30;78.30;;;;;;5112903;28;20250;-75
2022/02/27 10:06:49;;;;;;;5.80;3.95;;;13.70;76.00;;;;;;5113165;28;20276;-74
2022/02/27 10:09:23;;;;;;;4.47;3.60;;;13.50;76.40;;;;;;5113905;28;20229;-74
2022/02/27 10:11:50;;;;;;;3.38;3.08;;;12.10;76.60;;;;;;5113117;28;20252;-74
2022/02/27 10:14:25;;;;;;;4.30;3.15;;;11.00;77.30;;;;;;5113615;28;20623;-74
2022/02/27 10:17:01;;;;;;;5.55;3.30;;;11.00;77.00;;;;;;5112109;28;20199;-73
2022/02/27 10:19:30;;;;;;;3.78;3.25;;;10.10;79.30;;;;;;5114071;28;20194;-75
2022/02/27 10:21:57;;;;;;;3.50;3.10;;;10.10;79.10;;;;;;5113128;28;20575;-75
2022/02/27 10:24:24;;;;;;;3.75;3.42;;;10.30;79.80;;;;;;5113575;28;20234;-75
2022/02/27 10:26:52;;;;;;;5.15;3.70;;;11.00;80.00;;;;;;5113239;28;20203;-75
2022/02/27 10:29:21;;;;;;;3.85;3.47;;;11.70;79.40;;;;;;5114259;28;20214;-74
2022/02/27 10:31:49;;;;;;;5.93;3.67;;;12.30;78.90;;;;;;5113461;28;20198;-74
2022/02/27 10:34:20;;;;;;;5.25;4.10;;;13.30;77.90;;;;;;5113556;28;20225;-74
2022/02/27 10:37:03;;;;;;;4.35;3.80;;;13.90;75.60;;;;;;5112476;28;20767;-74
2022/02/27 10:39:32;;;;;;;5.90;3.30;;;14.80;74.60;;;;;;5113486;28;20226;-74
2022/02/27 10:42:10;;;;;;;3.55;2.90;;;15.80;73.70;;;;;;5113452;28;20460;-74
2022/02/27 10:44:38;;;;;;;6.20;3.70;;;15.70;70.00;;;;;;5112680;28;20597;-74
2022/02/27 10:47:18;;;;;;;3.90;3.17;;;15.30;72.30;;;;;;5112533;28;20978;-74
2022/02/27 10:49:46;;;;;;;2.87;2.60;;;15.80;71.10;;;;;;5112496;28;20833;-74
2022/02/27 10:52:17;;;;;;;3.10;2.90;;;14.70;68.50;;;;;;5112482;28;20457;-74
2022/02/27 10:54:46;;;;;;;3.63;2.75;;;14.70;70.40;;;;;;5112366;28;20991;-75
2022/02/27 10:57:26;;;;;;;2.60;2.40;;;14.90;66.10;;;;;;5111686;28;20252;-76
2022/02/27 10:59:53;;;;;;;4.67;2.60;;;14.50;66.80;;;;;;5112270;28;21008;-74
2022/02/27 11:02:22;;;;;;;4.50;2.77;;;14.40;67.30;;;;;;5112598;28;20492;-75
2022/02/27 11:04:51;;;;;;;2.58;2.38;;;14.50;66.30;;;;;;5111503;28;20488;-75
2022/02/27 11:07:19;;;;;;;3.00;2.70;;;14.20;66.00;;;;;;5111933;28;20285;-75
2022/02/27 11:09:46;;;;;;;2.95;2.70;;;13.70;65.90;;;;;;5111797;28;20457;-75
2022/02/27 11:12:14;;;;;;;4.97;2.42;;;13.50;68.40;;;;;;5112548;28;20294;-76
2022/02/27 11:14:42;;;;;;;3.50;2.20;;;13.80;66.60;;;;;;5112152;28;20215;-75
2022/02/27 11:17:11;;;;;;;3.00;2.70;;;13.80;67.10;;;;;;5111510;28;20199;-75
2022/02/27 11:19:38;;;;;;;4.47;3.10;;;14.50;67.40;;;;;;5111969;28;20231;-75
2022/02/27 11:22:05;;;;;;;3.17;2.50;;;14.60;64.80;;;;;;5111906;28;20342;-75
2022/02/27 11:24:36;;;;;;;2.27;2.07;;;14.80;64.40;;;;;;5110455;28;20492;-75
2022/02/27 11:27:05;;;;;;;3.38;3.00;;;14.60;64.20;;;;;;5110532;28;20948;-75
2022/02/27 11:29:32;;;;;;;3.45;2.63;;;14.60;64.90;;;;;;5111841;28;20203;-75
2022/02/27 11:32:00;;;;;;;3.50;2.78;;;14.40;65.40;;;;;;5111645;28;20210;-75
2022/02/27 11:34:28;;;;;;;3.00;2.63;;;14.70;66.60;;;;;;5110917;28;20903;-73
2022/02/27 11:36:55;;;;;;;3.10;2.80;;;15.40;66.50;;;;;;5110872;28;20464;-74
2022/02/27 11:42:08;;;;;;;2.90;2.60;;;15.90;64.20;;;;;;5111649;28;20813;-74
2022/02/27 11:44:36;;;;;;;3.42;3.13;;;15.10;64.90;;;;;;5111038;28;21015;-74
2022/02/27 11:47:06;;;;;;;4.22;3.10;;;14.10;65.30;;;;;;5110935;28;20210;-74
2022/02/27 11:49:33;;;;;;;3.20;2.90;;;13.60;66.70;;;;;;5111513;28;20205;-75
2022/02/27 11:52:07;;;;;;;4.70;3.53;;;13.80;66.70;;;;;;5111170;28;20285;-74
2022/02/27 11:54:44;;;;;;;5.85;3.30;;;13.90;67.20;;;;;;5111516;28;20226;-74
2022/02/27 11:57:15;;;;;;;4.43;3.10;;;14.00;67.60;;;;;;5110424;28;20241;-74
2022/02/27 12:00:07;;;;;;;4.78;3.53;;;15.10;67.00;;;;;;5111274;28;20199;-75
2022/02/27 12:02:37;;;;;;;4.33;3.40;;;15.60;66.60;;;;;;5111271;28;20232;-73
2022/02/27 12:05:06;;;;;;;5.30;3.27;;;15.80;65.20;;;;;;5110926;28;20488;-74
2022/02/27 12:08:07;;;;;;;3.60;3.13;;;16.40;67.10;;;;;;5110613;28;20463;-75
2022/02/27 12:10:36;;;;;;;4.67;3.50;;;16.40;64.90;;;;;;5111177;28;20462;-74
2022/02/27 12:13:19;;;;;;;4.30;3.40;;;15.90;65.30;;;;;;5110433;28;20457;-77
2022/02/27 12:15:46;;;;;;;3.97;3.57;;;16.30;66.80;;;;;;5110309;28;20444;-77
2022/02/27 12:18:21;;;;;;;4.43;3.63;;;17.30;66.60;;;;;;5111427;28;20457;-77
2022/02/27 12:20:51;;;;;;;4.87;3.33;;;17.70;65.00;;;;;;5112305;28;20463;-77
2022/02/27 12:23:47;;;;;;;4.60;3.43;;;18.10;65.20;;;;;;5110447;28;20476;-77
2022/02/27 12:26:43;;;;;;;5.00;3.50;;;17.90;64.30;;;;;;5111352;28;20888;-77
2022/02/27 12:29:21;;;;;;;4.00;3.47;;;18.10;62.90;;;;;;5105654;28;20846;-77
2022/02/27 12:34:16;;;;;;;4.03;3.30;;;18.50;63.00;;;;;;5154785;22;21026;-93
2022/02/27 12:36:43;;;;;;;4.63;3.70;;;18.60;62.60;;;;;;5120211;28;20875;-93
2022/02/27 12:39:14;;;;;;;3.80;3.37;;;18.40;61.60;;;;;;5120525;28;20456;-93
2022/02/27 12:41:42;;;;;;;3.60;3.27;;;18.50;63.70;;;;;;5120253;28;20475;-93
2022/02/27 12:44:10;;;;;;;3.93;3.57;;;18.40;62.20;;;;;;5120235;28;20468;-93
2022/02/27 12:46:38;;;;;;;4.03;3.20;;;18.20;63.90;;;;;;5119746;28;20489;-93
2022/02/27 12:51:49;;;;;;;4.87;3.60;;;18.30;62.30;;;;;;5122086;28;20472;-93
2022/02/27 12:54:19;;;;;;;5.20;3.37;;;18.60;62.00;;;;;;5123449;28;20457;-93
2022/02/27 12:56:55;;;;;;;3.73;3.27;;;18.70;62.20;;;;;;5121346;28;20514;-93
2022/02/27 12:59:22;;;;;;;4.40;3.23;;;18.60;63.00;;;;;;5121938;28;20464;-94